Flight Track Log - Related Links

Times and Time Zones

All times are in EDT time to prevent confusion due to time zone crossing. See the SWA232 flight status page for this flight to view local times or setup timezone preferences in your user account.

Time Position Orientation Groundspeed Altitude Reporting Facility
EDT Latitude Longitude Course Direction KTS MPH feet Rate Location/Type
Thu 10:22:38 AM 41.8000 -87.7833 236° Southwest 144 166 2,100  Level Chicago TRACON
Thu 10:23:44 AM 41.7667 -87.8500 236° Southwest 217 250 3,300 1,843 Climbing Chicago TRACON
Thu 10:24:45 AM 41.7547 -87.9206 257° West 225 259 6,000 2,439 Climbing Chicago Center
Thu 10:25:47 AM 41.7611 -88.0042 276° West 229 264 8,300 2,710 Climbing Chicago Center
Thu 10:26:49 AM 41.7681 -88.0983 276° West 253 291 11,600 1,887 Climbing Chicago Center
Thu 10:27:51 AM 41.7756 -88.2217 275° West 284 327 12,200 2,160 Climbing Chicago Center
Thu 10:28:54 AM 41.7839 -88.3347 276° West 308 354 16,100 3,120 Climbing Chicago Center
Thu 10:29:56 AM 41.7900 -88.4317 275° West 271 312 18,700 2,226 Climbing Chicago Center
Thu 10:30:58 AM 41.7975 -88.5317 276° West 270 311 20,700 1,258 Climbing Chicago Center
Thu 10:32:00 AM 41.7742 -88.6456 255° West 317 365 21,300 919 Climbing Chicago Center
Thu 10:33:02 AM 41.7411 -88.8011 254° West 354 407 22,600 1,403 Climbing Chicago Center
Thu 10:34:04 AM 41.7111 -88.9356 253° West 372 428 24,200 1,548 Climbing Chicago Center
Thu 10:35:06 AM 41.6808 -89.0719 253° West 384 442 25,800 1,452 Climbing Chicago Center
Thu 10:36:08 AM 41.6503 -89.2092 253° West 387 445 27,200 1,500 Climbing Chicago Center
Thu 10:37:10 AM 41.6206 -89.3458 254° West 385 443 28,900 1,597 Climbing Chicago Center
Thu 10:38:12 AM 41.5853 -89.5050 254° West 378 435 30,500 1,452 Climbing Chicago Center
Thu 10:39:14 AM 41.5533 -89.6406 253° West 372 428 31,900 1,210 Climbing Chicago Center
Thu 10:40:16 AM 41.5239 -89.7722 253° West 371 427 33,000 919 Climbing Chicago Center
Thu 10:41:18 AM 41.4928 -89.9047 253° West 375 432 33,800 774 Climbing Chicago Center
Thu 10:42:20 AM 41.4631 -90.0381 253° West 377 434 34,600 720 Climbing Chicago Center
Thu 10:43:23 AM 41.4317 -90.1714 253° West 378 435 35,300 672 Climbing Chicago Center
Thu 10:44:25 AM 41.3944 -90.3331 253° West 383 441 36,000 339 Climbing Chicago Center
Thu 10:45:27 AM 41.3625 -90.4675 252° West 383 441 36,000  Level Chicago Center
Thu 10:46:29 AM 41.3308 -90.6025 253° West 383 441 36,000  Level Chicago Center
Thu 10:47:31 AM 41.2914 -90.7394 249° West 394 453 36,000  Level Chicago Center
Thu 10:48:33 AM 41.2533 -90.8692 249° West 381 438 36,000  Level Chicago Center
Thu 10:49:35 AM 41.2142 -91.0003 248° West 382 440 36,000  Level Chicago Center
Thu 10:50:37 AM 41.1681 -91.1561 249° West 378 435 36,000  Level Chicago Center
Thu 10:51:39 AM 41.1306 -91.2844 249° West 375 432 36,000  Level Chicago Center
Thu 10:52:41 AM 41.0911 -91.4111 248° West 374 430 36,000  Level Chicago Center
Thu 10:53:43 AM 41.0528 -91.5369 248° West 371 427 36,000  Level Chicago Center
Thu 10:54:45 AM 41.0100 -91.6828 249° West 373 429 36,000  Level Chicago Center
Thu 10:55:47 AM 40.9708 -91.8097 248° West 375 432 36,000  Level Chicago Center
Thu 10:56:49 AM 40.9319 -91.9358 248° West 375 432 36,000  Level Chicago Center
Thu 10:57:50 AM 40.8928 -92.0617 248° West 373 429 36,000  Level Chicago Center
Thu 10:58:52 AM 40.8542 -92.1889 248° West 377 434 36,000  Level Chicago Center
Thu 10:59:55 AM 40.8067 -92.3406 248° West 377 434 36,000  Level Chicago Center
Thu 11:00:57 AM 40.7661 -92.4664 247° West 377 434 36,000  Level Chicago Center
Thu 11:01:59 AM 40.7275 -92.5922 248° West 375 432 36,000  Level Chicago Center
Thu 11:03:01 AM 40.6886 -92.7169 248° West 374 430 36,000  Level Chicago Center
Thu 11:04:03 AM 40.6492 -92.8392 247° West 368 423 36,000  Level Chicago Center
Thu 11:04:35 AM 40.6242 -92.9142 246° West 371 427 36,000  Level Kansas City Center
Thu 11:05:36 AM 40.5861 -93.0372 248° West 370 426 36,000  Level Kansas City Center
Thu 11:06:37 AM 40.5458 -93.1617 247° West 373 429 36,000  Level Kansas City Center
Thu 11:07:39 AM 40.4975 -93.3114 247° West 375 432 36,000  Level Kansas City Center
Thu 11:08:42 AM 40.4567 -93.4378 247° West 378 435 36,000  Level Kansas City Center
Thu 11:09:43 AM 40.4156 -93.5631 247° West 377 434 36,000  Level Kansas City Center
Thu 11:10:45 AM 40.3739 -93.6889 247° West 379 436 36,000  Level Kansas City Center
Thu 11:11:49 AM 40.3331 -93.8131 247° West 376 433 36,000  Level Kansas City Center
Thu 11:12:49 AM 40.2928 -93.9650 251° West 371 427 36,000  Level Kansas City Center
Thu 11:13:53 AM 40.2614 -94.0883 252° West 367 422 36,000  Level Kansas City Center
Thu 11:14:53 AM 40.2292 -94.2078 251° West 366 421 36,000  Level Kansas City Center
Thu 11:15:57 AM 40.1919 -94.3444 250° West 360 414 36,000  Level Kansas City Center
Thu 11:16:58 AM 40.1608 -94.4619 251° West 357 411 36,000  Level Kansas City Center
Thu 11:17:58 AM 40.1242 -94.5978 251° West 356 410 36,000  Level Kansas City Center
Thu 11:19:03 AM 40.0925 -94.7133 250° West 354 407 36,000  Level Kansas City Center
Thu 11:20:03 AM 40.0564 -94.8464 251° West 349 402 36,000  Level Kansas City Center
Thu 11:21:07 AM 40.0253 -94.9586 250° West 346 398 36,000  Level Kansas City Center
Thu 11:22:08 AM 39.9897 -95.0906 251° West 346 398 36,000  Level Kansas City Center
Thu 11:23:09 AM 39.9578 -95.2028 250° West 347 399 36,000  Level Kansas City Center
Thu 11:24:13 AM 39.9217 -95.3353 250° West 348 400 36,000  Level Kansas City Center
Thu 11:25:14 AM 39.8900 -95.4481 250° West 348 400 36,000  Level Kansas City Center
Thu 11:26:18 AM 39.8531 -95.5806 250° West 348 400 36,000  Level Kansas City Center
Thu 11:27:18 AM 39.8208 -95.6950 250° West 351 404 36,000  Level Kansas City Center
Thu 11:28:19 AM 39.7814 -95.8317 249° West 359 413 36,000  Level Kansas City Center
Thu 11:29:21 AM 39.7483 -95.9486 250° West 361 415 36,000  Level Kansas City Center
Thu 11:30:25 AM 39.7089 -96.0853 249° West 363 418 36,000  Level Kansas City Center
Thu 11:31:25 AM 39.6733 -96.2089 250° West 364 419 36,000  Level Kansas City Center
Thu 11:32:28 AM 39.6378 -96.3322 250° West 365 420 36,000  Level Kansas City Center
Thu 11:33:32 AM 39.6022 -96.4539 249° West 362 417 36,000  Level Kansas City Center
Thu 11:34:32 AM 39.5647 -96.5850 250° West 361 415 36,000  Level Kansas City Center
Thu 11:35:33 AM 39.5297 -96.7050 249° West 357 411 36,000  Level Kansas City Center
Thu 11:36:36 AM 39.4872 -96.8403 248° West 356 410 36,000  Level Kansas City Center
Thu 11:37:38 AM 39.4536 -96.9539 249° West 355 409 36,000  Level Kansas City Center
Thu 11:38:39 AM 39.4158 -97.0853 250° West 351 404 36,000  Level Kansas City Center
Thu 11:39:43 AM 39.3817 -97.1994 249° West 355 409 36,000  Level Kansas City Center
Thu 11:40:43 AM 39.3478 -97.3153 249° West 357 411 36,000  Level Kansas City Center
Thu 11:41:48 AM 39.3072 -97.4497 249° West 361 415 36,000  Level Kansas City Center
Thu 11:42:48 AM 39.2722 -97.5686 249° West 363 418 36,000  Level Kansas City Center
Thu 11:43:52 AM 39.2311 -97.7031 248° West 359 413 36,000  Level Kansas City Center
Thu 11:44:54 AM 39.1978 -97.8136 249° West 359 413 36,000  Level Kansas City Center
Thu 11:45:55 AM 39.1583 -97.9406 248° West 364 419 36,000  Level Kansas City Center
Thu 11:46:56 AM 39.1208 -98.0622 248° West 368 423 36,000  Level Kansas City Center
Thu 11:47:59 AM 39.0836 -98.1822 248° West 365 420 36,000  Level Kansas City Center
Thu 11:49:00 AM 39.0403 -98.3228 248° West 358 412 36,000  Level Kansas City Center
Thu 11:50:03 AM 39.0028 -98.4414 248° West 359 413 36,000  Level Kansas City Center
Thu 11:51:05 AM 38.9650 -98.5600 248° West 360 414 36,000  Level Kansas City Center
Thu 11:52:06 AM 38.9283 -98.6775 248° West 357 411 36,000  Level Kansas City Center
Thu 11:53:09 AM 38.8917 -98.7925 248° West 352 405 36,000  Level Kansas City Center
Thu 11:54:11 AM 38.8556 -98.9089 248° West 352 405 36,000  Level Kansas City Center
Thu 11:55:11 AM 38.8111 -99.0458 247° West 349 402 36,000  Level Kansas City Center
Thu 11:56:15 AM 38.7744 -99.1606 248° West 348 400 36,000  Level Kansas City Center
Thu 11:57:16 AM 38.7378 -99.2758 248° West 350 403 36,000  Level Kansas City Center
Thu 11:58:20 AM 38.7006 -99.3914 248° West 352 405 36,000  Level Kansas City Center
Thu 11:59:20 AM 38.6644 -99.5064 248° West 350 403 36,000  Level Kansas City Center
Thu 12:00:24 PM 38.6169 -99.6436 246° West 354 407 36,000  Level Kansas City Center
Thu 12:01:25 PM 38.5833 -99.7542 249° West 350 403 36,000  Level Kansas City Center
Thu 12:02:28 PM 38.5400 -99.8833 247° West 353 406 36,000  Level Kansas City Center
Thu 12:03:30 PM 38.5022 -99.9931 246° West 353 406 36,000  Level Kansas City Center
Thu 12:04:31 PM 38.4606 -100.1247 248° West 357 411 36,000  Level Kansas City Center
Thu 12:05:33 PM 38.4228 -100.2361 247° West 358 412 36,000  Level Kansas City Center
Thu 12:06:36 PM 38.3789 -100.3669 247° West 359 413 36,000  Level Kansas City Center
Thu 12:07:37 PM 38.3411 -100.4786 247° West 360 414 36,000  Level Kansas City Center
Thu 12:08:40 PM 38.2975 -100.6083 247° West 359 413 36,000  Level Kansas City Center
Thu 12:09:41 PM 38.2597 -100.7189 247° West 358 412 36,000  Level Kansas City Center
Thu 12:10:43 PM 38.2167 -100.8472 247° West 356 410 36,000  Level Kansas City Center
Thu 12:11:45 PM 38.1792 -100.9569 247° West 356 410 36,000  Level Kansas City Center
Thu 12:13:00 PM 38.1289 -101.1014 246° West 353 406 36,000  Level Denver Center
Thu 12:14:02 PM 38.0861 -101.2269 247° West 350 403 36,000  Level Denver Center
Thu 12:15:04 PM 38.0483 -101.3331 246° West 347 399 36,000  Level Denver Center
Thu 12:16:06 PM 38.0061 -101.4572 247° West 345 397 36,000  Level Denver Center
Thu 12:17:08 PM 37.9686 -101.5631 246° West 347 399 36,000  Level Denver Center
Thu 12:18:10 PM 37.9253 -101.6889 246° West 350 403 36,000  Level Denver Center
Thu 12:19:12 PM 37.8878 -101.7944 246° West 346 398 36,000  Level Denver Center
Thu 12:20:14 PM 37.8489 -101.9008 245° Southwest 347 399 36,000  Level Denver Center
Thu 12:21:16 PM 37.8061 -102.0253 247° West 346 398 36,000  Level Denver Center
Thu 12:22:18 PM 37.7683 -102.1308 246° West 346 398 36,000  Level Denver Center
Thu 12:23:20 PM 37.7253 -102.2544 246° West 344 396 36,000  Level Denver Center
Thu 12:24:22 PM 37.6875 -102.3603 246° West 347 399 36,000  Level Denver Center
Thu 12:25:24 PM 37.6419 -102.4842 245° Southwest 346 398 36,000  Level Denver Center
Thu 12:26:26 PM 37.6072 -102.6017 250° West 352 405 36,000  Level Denver Center
Thu 12:27:28 PM 37.5811 -102.7108 253° West 342 394 36,000  Level Denver Center
Thu 12:28:30 PM 37.5492 -102.8392 253° West 343 395 36,000  Level Denver Center
Thu 12:29:32 PM 37.5228 -102.9500 253° West 345 397 36,000  Level Denver Center
Thu 12:31:16 PM 37.4667 -103.1628 252° West 347 399 36,000  Level Albuquerque Center
Thu 12:31:36 PM 37.4608 -103.1908 255° West 348 400 36,000  Level Denver Center
Thu 12:32:39 PM 37.4281 -103.3214 252° West 350 403 36,000  Level Denver Center
Thu 12:33:41 PM 37.4000 -103.4328 252° West 349 402 36,000  Level Denver Center
Thu 12:34:43 PM 37.3661 -103.5622 252° West 350 403 36,000  Level Denver Center
Thu 12:35:45 PM 37.3378 -103.6756 253° West 353 406 36,000  Level Denver Center
Thu 12:36:47 PM 37.3078 -103.7894 252° West 356 410 36,000  Level Denver Center
Thu 12:37:49 PM 37.2736 -103.9239 252° West 359 413 36,000  Level Denver Center
Thu 12:38:51 PM 37.2433 -104.0372 251° West 356 410 36,000  Level Denver Center
Thu 12:39:53 PM 37.2081 -104.1700 252° West 358 412 36,000  Level Denver Center
Thu 12:40:55 PM 37.1772 -104.2831 251° West 358 412 36,000  Level Denver Center
Thu 12:41:57 PM 37.1433 -104.4158 252° West 359 413 36,000  Level Denver Center
Thu 12:42:59 PM 37.1131 -104.5314 252° West 366 421 36,000  Level Denver Center
Thu 12:44:01 PM 37.0822 -104.6483 252° West 369 425 36,000  Level Denver Center
Thu 12:45:03 PM 37.0461 -104.7842 252° West 367 422 36,000  Level Denver Center
Thu 12:46:05 PM 37.0147 -104.8978 251° West 364 419 36,000  Level Denver Center
Thu 12:47:07 PM 36.9808 -105.0186 251° West 364 419 36,000  Level Denver Center
Thu 12:48:09 PM 36.9497 -105.1361 252° West 358 412 36,000  Level Denver Center
Thu 12:49:12 PM 36.9108 -105.2753 251° West 362 417 36,000  Level Denver Center
Thu 12:50:26 PM 36.8706 -105.4250 251° West 358 412 36,000  Level Denver Center
Thu 12:51:28 PM 36.8392 -105.5381 251° West 361 415 36,000  Level Denver Center
Thu 12:52:30 PM 36.8075 -105.6500 251° West 361 415 36,000  Level Denver Center
Thu 12:53:32 PM 36.7703 -105.7792 250° West 357 411 36,000  Level Denver Center
Thu 12:54:34 PM 36.7361 -105.9097 252° West 358 412 36,000  Level Denver Center
Thu 12:55:36 PM 36.7031 -106.0281 251° West 363 418 36,000  Level Denver Center
Thu 12:56:38 PM 36.6689 -106.1461 250° West 367 422 36,000  Level Denver Center
Thu 12:57:40 PM 36.6361 -106.2631 251° West 361 415 36,000  Level Denver Center
Thu 12:58:43 PM 36.6025 -106.3808 250° West 361 415 36,000  Level Denver Center
Thu 12:58:58 PM 36.5908 -106.4258 252° West 362 417 36,000  Level Albuquerque Center
Thu 01:00:00 PM 36.5581 -106.5378 250° West 360 414 36,000  Level Albuquerque Center
Thu 01:01:02 PM 36.5197 -106.6694 250° West 362 417 36,000  Level Albuquerque Center
Thu 01:01:49 PM 36.4925 -106.7611 250° West 360 414 36,000  Level Denver Center
Thu 01:02:51 PM 36.4606 -106.8739 251° West 361 415 36,000  Level Denver Center
Thu 01:03:53 PM 36.4219 -107.0056 250° West 362 417 36,000  Level Denver Center
Thu 01:04:55 PM 36.3903 -107.1181 251° West 361 415 36,000  Level Denver Center
Thu 01:05:57 PM 36.3508 -107.2506 250° West 365 420 36,000  Level Denver Center
Thu 01:06:12 PM 36.3453 -107.2703 251° West 365 420 36,000  Level Albuquerque Center
Thu 01:07:14 PM 36.3056 -107.4019 250° West 365 420 36,000  Level Albuquerque Center
Thu 01:08:16 PM 36.2583 -107.5047 240° Southwest 360 414 36,000  Level Albuquerque Center
Thu 01:09:19 PM 36.1881 -107.6156 232° Southwest 364 419 36,000  Level Albuquerque Center
Thu 01:11:07 PM 36.0881 -107.7725 232° Southwest 366 421 36,000  Level Denver Center
Thu 01:11:23 PM 36.0572 -107.8217 232° Southwest 366 421 36,000  Level Albuquerque Center
Thu 01:12:25 PM 35.9964 -107.9172 232° Southwest 368 423 36,000  Level Albuquerque Center
Thu 01:13:27 PM 35.9347 -108.0131 232° Southwest 370 426 36,000  Level Albuquerque Center
Thu 01:14:29 PM 35.8608 -108.1250 231° Southwest 373 429 36,000  Level Albuquerque Center
Thu 01:15:31 PM 35.7975 -108.2244 232° Southwest 379 436 36,000  Level Albuquerque Center
Thu 01:16:33 PM 35.7239 -108.3364 231° Southwest 377 434 36,000  Level Albuquerque Center
Thu 01:17:35 PM 35.6611 -108.4319 231° Southwest 374 430 36,000 -194 Level Albuquerque Center
Thu 01:18:37 PM 35.5883 -108.5428 231° Southwest 372 428 35,600 -629 Descending Albuquerque Center
Thu 01:19:39 PM 35.5275 -108.6364 231° Southwest 367 422 34,700 -774 Descending Albuquerque Center
Thu 01:20:41 PM 35.4561 -108.7433 231° Southwest 364 419 34,000 -339 Descending Albuquerque Center
Thu 01:21:43 PM 35.3961 -108.8350 231° Southwest 359 413 34,000  Level Albuquerque Center
Thu 01:22:45 PM 35.3356 -108.9267 231° Southwest 360 414 34,000  Level Albuquerque Center
Thu 01:23:47 PM 35.2650 -109.0331 231° Southwest 361 415 34,000  Level Albuquerque Center
Thu 01:24:49 PM 35.2039 -109.1253 231° Southwest 362 417 34,000  Level Albuquerque Center
Thu 01:25:51 PM 35.1308 -109.2322 230° Southwest 364 419 34,000  Level Albuquerque Center
Thu 01:26:53 PM 35.0694 -109.3261 231° Southwest 367 422 34,000  Level Albuquerque Center
Thu 01:27:55 PM 34.9969 -109.4333 230° Southwest 367 422 34,000  Level Albuquerque Center
Thu 01:28:58 PM 34.9322 -109.5228 229° Southwest 365 420 34,000  Level Albuquerque Center
Thu 01:30:00 PM 34.8586 -109.6331 231° Southwest 371 427 34,000  Level Albuquerque Center
Thu 01:31:02 PM 34.7953 -109.7278 231° Southwest 376 433 34,000  Level Albuquerque Center
Thu 01:32:04 PM 34.7231 -109.8339 230° Southwest 368 423 34,000  Level Albuquerque Center
Thu 01:33:06 PM 34.6775 -109.9381 242° Southwest 364 419 34,000  Level Albuquerque Center
Thu 01:34:08 PM 34.6306 -110.0644 246° West 367 422 34,000  Level Albuquerque Center
Thu 01:35:10 PM 34.5925 -110.1775 248° West 374 430 34,000  Level Albuquerque Center
Thu 01:36:12 PM 34.5517 -110.2872 246° West 372 428 34,000 -435 Level Albuquerque Center
Thu 01:37:14 PM 34.5008 -110.4094 243° Southwest 366 421 33,100 -1,016 Descending Albuquerque Center
Thu 01:38:16 PM 34.4669 -110.5147 249° West 367 422 31,900 -1,742 Descending Albuquerque Center
Thu 01:39:18 PM 34.4172 -110.6383 244° Southwest 344 396 29,500 -2,129 Descending Albuquerque Center
Thu 01:40:20 PM 34.3800 -110.7389 246° West 331 381 27,500 -1,839 Descending Albuquerque Center
Thu 01:41:22 PM 34.3333 -110.8258 237° Southwest 314 361 25,700 -1,694 Descending Albuquerque Center
Thu 01:42:24 PM 34.2778 -110.8950 226° Southwest 289 333 24,000 -1,645 Descending Albuquerque Center
Thu 01:43:26 PM 34.2231 -110.9656 227° Southwest 286 329 22,300 -1,742 Descending Albuquerque Center
Thu 01:44:28 PM 34.1631 -111.0439 227° Southwest 308 354 20,400 -1,935 Descending Albuquerque Center
Thu 01:45:30 PM 34.0939 -111.1308 226° Southwest 303 349 18,300 -1,839 Descending Albuquerque Center
Thu 01:46:32 PM 34.0394 -111.2022 227° Southwest 294 338 16,600 -1,632 Descending Albuquerque Center
Thu 01:47:35 PM 33.9850 -111.2725 227° Southwest 288 331 14,900 -1,632 Descending Albuquerque Center
Thu 01:48:37 PM 33.9275 -111.3464 227° Southwest 300 345 13,200 -1,452 Descending Albuquerque Center
Thu 01:49:39 PM 33.8672 -111.4183 225° Southwest 302 348 11,900 -1,065 Descending Albuquerque Center
Thu 01:50:41 PM 33.8011 -111.4739 215° Southwest 289 333 11,000 -1,113 Descending Albuquerque Center
Thu 01:51:43 PM 33.7389 -111.5275 216° Southwest 276 318 9,600 -1,355 Descending Albuquerque Center
Thu 01:52:45 PM 33.6667 -111.5897 216° Southwest 267 307 8,200 -968 Descending Albuquerque Center
Thu 01:53:47 PM 33.6117 -111.6325 213° Southwest 236 272 7,600 -774 Descending Albuquerque Center
Thu 01:54:49 PM 33.5683 -111.6836 225° Southwest 219 252 6,600 -1,016 Descending Albuquerque Center
Thu 01:55:51 PM 33.5247 -111.7333 224° Southwest 216 249 5,500 -1,065 Descending Albuquerque Center
Thu 01:56:53 PM 33.4819 -111.7828 224° Southwest 213 245 4,400 -871 Descending Albuquerque Center
Thu 01:57:55 PM 33.4489 -111.8283 229° Southwest 185 213 3,700 -774 Descending Albuquerque Center
Thu 01:58:57 PM 33.4403 -111.8856 260° West 175 201 2,800 -912 Descending Albuquerque Center
Thu 02:00:00 PM 33.4414 -111.9517 271° West 166 191 1,800 -810 Descending Albuquerque Center
Thu 02:01:03 PM 33.4400 -111.9989 268° West 156 180 1,100 -667 Descending Albuquerque Center
Thu 02:03:00 PM 33.4343 -112.0116 270° West  Level Estimated

Login

Don't have an account? Register now (free) for customized features, flight alerts, and more!